sensor_id;sensor_type;location;lat;lon;timestamp;temperature;humidity
18266;DHT22;9259;48.194;16.322;2023-03-01T13:11:46;8.00;95.20
18266;DHT22;9259;48.194;16.322;2023-03-01T13:17:03;14.00;97.80
18266;DHT22;9259;48.194;16.322;2023-03-01T13:19:31;13.30;96.70
18266;DHT22;9259;48.194;16.322;2023-03-01T13:22:26;12.10;97.50
18266;DHT22;9259;48.194;16.322;2023-03-01T13:25:12;11.40;98.60
18266;DHT22;9259;48.194;16.322;2023-03-01T13:27:43;10.40;98.60
18266;DHT22;9259;48.194;16.322;2023-03-01T13:30:42;11.00;98.40
18266;DHT22;9259;48.194;16.322;2023-03-01T13:36:47;11.30;98.10
18266;DHT22;9259;48.194;16.322;2023-03-01T13:39:30;9.70;99.10
18266;DHT22;9259;48.194;16.322;2023-03-01T13:42:00;11.10;99.00
18266;DHT22;9259;48.194;16.322;2023-03-01T13:44:32;11.70;98.10
18266;DHT22;9259;48.194;16.322;2023-03-01T13:47:08;12.30;97.70
18266;DHT22;9259;48.194;16.322;2023-03-01T14:10:56;11.60;98.10
18266;DHT22;9259;48.194;16.322;2023-03-01T14:13:43;9.90;99.90
18266;DHT22;9259;48.194;16.322;2023-03-01T14:16:32;9.90;99.90
18266;DHT22;9259;48.194;16.322;2023-03-01T14:19:15;10.30;99.90
18266;DHT22;9259;48.194;16.322;2023-03-01T14:21:46;10.20;99.90
18266;DHT22;9259;48.194;16.322;2023-03-01T14:24:20;10.00;99.90
18266;DHT22;9259;48.194;16.322;2023-03-01T14:26:50;10.40;99.90
18266;DHT22;9259;48.194;16.322;2023-03-01T14:29:26;10.50;99.90
18266;DHT22;9259;48.194;16.322;2023-03-01T14:31:55;10.30;99.90
18266;DHT22;9259;48.194;16.322;2023-03-01T14:34:36;9.50;99.90
18266;DHT22;9259;48.194;16.322;2023-03-01T14:37:19;9.20;99.90
18266;DHT22;9259;48.194;16.322;2023-03-01T14:39:49;9.00;99.90
18266;DHT22;9259;48.194;16.322;2023-03-01T14:42:20;9.00;99.90
18266;DHT22;9259;48.194;16.322;2023-03-01T14:44:51;8.70;99.90
18266;DHT22;9259;48.194;16.322;2023-03-01T14:47:25;8.40;99.90
18266;DHT22;9259;48.194;16.322;2023-03-01T14:49:58;8.20;99.90
18266;DHT22;9259;48.194;16.322;2023-03-01T14:52:41;8.20;99.90
18266;DHT22;9259;48.194;16.322;2023-03-01T14:55:16;8.20;99.90
18266;DHT22;9259;48.194;16.322;2023-03-01T14:57:46;8.10;99.90
18266;DHT22;9259;48.194;16.322;2023-03-01T15:00:18;8.10;99.90
18266;DHT22;9259;48.194;16.322;2023-03-01T15:02:50;8.20;99.90
18266;DHT22;9259;48.194;16.322;2023-03-01T15:05:25;8.30;99.90
18266;DHT22;9259;48.194;16.322;2023-03-01T15:07:57;8.10;99.90
18266;DHT22;9259;48.194;16.322;2023-03-01T15:10:28;8.00;99.90
18266;DHT22;9259;48.194;16.322;2023-03-01T15:13:10;8.10;99.90
18266;DHT22;9259;48.194;16.322;2023-03-01T15:15:41;8.00;99.90
18266;DHT22;9259;48.194;16.322;2023-03-01T15:18:18;8.00;99.90
18266;DHT22;9259;48.194;16.322;2023-03-01T15:20:47;8.00;99.90
18266;DHT22;9259;48.194;16.322;2023-03-01T15:23:23;7.80;99.90
18266;DHT22;9259;48.194;16.322;2023-03-01T15:25:53;7.90;99.90
18266;DHT22;9259;48.194;16.322;2023-03-01T15:28:25;7.90;99.90
18266;DHT22;9259;48.194;16.322;2023-03-01T15:30:57;7.70;99.90
18266;DHT22;9259;48.194;16.322;2023-03-01T15:33:31;7.70;99.90
18266;DHT22;9259;48.194;16.322;2023-03-01T15:36:02;7.70;99.90
18266;DHT22;9259;48.194;16.322;2023-03-01T15:38:50;7.60;99.90
18266;DHT22;9259;48.194;16.322;2023-03-01T15:41:24;7.50;99.90
18266;DHT22;9259;48.194;16.322;2023-03-01T15:43:54;7.50;99.90
18266;DHT22;9259;48.194;16.322;2023-03-01T15:46:28;7.40;99.90
18266;DHT22;9259;48.194;16.322;2023-03-01T15:48:59;7.20;99.90
18266;DHT22;9259;48.194;16.322;2023-03-01T15:51:33;7.40;99.90
18266;DHT22;9259;48.194;16.322;2023-03-01T15:54:06;7.60;99.90
18266;DHT22;9259;48.194;16.322;2023-03-01T15:56:38;7.50;99.90
18266;DHT22;9259;48.194;16.322;2023-03-01T15:59:09;7.40;99.90
18266;DHT22;9259;48.194;16.322;2023-03-01T16:01:40;7.50;99.90
18266;DHT22;9259;48.194;16.322;2023-03-01T16:04:09;7.20;99.90
18266;DHT22;9259;48.194;16.322;2023-03-01T16:06:39;7.40;99.90
18266;DHT22;9259;48.194;16.322;2023-03-01T16:09:08;7.30;99.90
18266;DHT22;9259;48.194;16.322;2023-03-01T16:11:36;7.30;99.90
18266;DHT22;9259;48.194;16.322;2023-03-01T16:14:06;7.30;99.90
18266;DHT22;9259;48.194;16.322;2023-03-01T16:16:35;7.30;99.90
18266;DHT22;9259;48.194;16.322;2023-03-01T16:19:03;7.30;99.90
18266;DHT22;9259;48.194;16.322;2023-03-01T16:21:32;7.30;99.90
18266;DHT22;9259;48.194;16.322;2023-03-01T16:24:00;7.30;99.90
18266;DHT22;9259;48.194;16.322;2023-03-01T16:26:30;7.30;99.90
18266;DHT22;9259;48.194;16.322;2023-03-01T16:28:59;7.20;99.90
18266;DHT22;9259;48.194;16.322;2023-03-01T16:31:28;7.30;99.90
18266;DHT22;9259;48.194;16.322;2023-03-01T16:33:58;7.30;99.90
18266;DHT22;9259;48.194;16.322;2023-03-01T16:36:27;7.30;99.90
18266;DHT22;9259;48.194;16.322;2023-03-01T16:38:58;7.30;99.90
18266;DHT22;9259;48.194;16.322;2023-03-01T16:41:27;7.30;99.90
18266;DHT22;9259;48.194;16.322;2023-03-01T16:43:58;7.30;99.90
18266;DHT22;9259;48.194;16.322;2023-03-01T16:46:27;7.20;99.90
18266;DHT22;9259;48.194;16.322;2023-03-01T16:48:57;7.20;99.90
18266;DHT22;9259;48.194;16.322;2023-03-01T16:51:25;7.20;99.90
18266;DHT22;9259;48.194;16.322;2023-03-01T16:53:55;7.60;99.90
18266;DHT22;9259;48.194;16.322;2023-03-01T16:56:23;7.20;99.90
18266;DHT22;9259;48.194;16.322;2023-03-01T16:58:51;7.20;99.90
18266;DHT22;9259;48.194;16.322;2023-03-01T17:01:21;7.20;99.90
18266;DHT22;9259;48.194;16.322;2023-03-01T17:03:50;7.20;99.90
18266;DHT22;9259;48.194;16.322;2023-03-01T17:06:21;7.20;99.90
18266;DHT22;9259;48.194;16.322;2023-03-01T17:08:51;7.20;99.90
18266;DHT22;9259;48.194;16.322;2023-03-01T17:11:20;6.30;99.90
18266;DHT22;9259;48.194;16.322;2023-03-01T17:13:48;7.20;99.90
18266;DHT22;9259;48.194;16.322;2023-03-01T17:16:18;7.20;99.90
18266;DHT22;9259;48.194;16.322;2023-03-01T17:18:49;7.20;99.90
18266;DHT22;9259;48.194;16.322;2023-03-01T17:21:18;7.20;99.90
18266;DHT22;9259;48.194;16.322;2023-03-01T17:23:47;7.30;99.90
18266;DHT22;9259;48.194;16.322;2023-03-01T17:26:17;7.50;99.90
18266;DHT22;9259;48.194;16.322;2023-03-01T17:28:47;7.20;99.90
18266;DHT22;9259;48.194;16.322;2023-03-01T17:31:18;7.20;99.90
18266;DHT22;9259;48.194;16.322;2023-03-01T17:33:50;7.10;99.90
18266;DHT22;9259;48.194;16.322;2023-03-01T17:36:18;7.10;99.90
18266;DHT22;9259;48.194;16.322;2023-03-01T17:38:46;7.00;99.90
18266;DHT22;9259;48.194;16.322;2023-03-01T17:41:15;7.10;99.90
18266;DHT22;9259;48.194;16.322;2023-03-01T17:43:45;7.10;99.90
18266;DHT22;9259;48.194;16.322;2023-03-01T17:46:13;7.20;99.90
18266;DHT22;9259;48.194;16.322;2023-03-01T17:48:43;7.20;99.90
18266;DHT22;9259;48.194;16.322;2023-03-01T17:51:11;7.20;99.90
18266;DHT22;9259;48.194;16.322;2023-03-01T17:53:41;7.10;99.90
18266;DHT22;9259;48.194;16.322;2023-03-01T17:56:11;7.00;99.90
18266;DHT22;9259;48.194;16.322;2023-03-01T17:58:39;7.00;99.90
18266;DHT22;9259;48.194;16.322;2023-03-01T18:01:09;6.90;99.90
18266;DHT22;9259;48.194;16.322;2023-03-01T18:03:39;6.90;99.90
18266;DHT22;9259;48.194;16.322;2023-03-01T18:06:12;6.90;99.90
18266;DHT22;9259;48.194;16.322;2023-03-01T18:08:42;6.90;99.90
18266;DHT22;9259;48.194;16.322;2023-03-01T18:11:12;6.80;99.90
18266;DHT22;9259;48.194;16.322;2023-03-01T18:13:41;6.70;99.90
18266;DHT22;9259;48.194;16.322;2023-03-01T18:16:12;6.70;99.90
18266;DHT22;9259;48.194;16.322;2023-03-01T18:18:44;6.60;99.90
18266;DHT22;9259;48.194;16.322;2023-03-01T18:21:13;6.60;99.90
18266;DHT22;9259;48.194;16.322;2023-03-01T18:23:43;6.50;99.90
18266;DHT22;9259;48.194;16.322;2023-03-01T18:26:13;6.40;99.90
18266;DHT22;9259;48.194;16.322;2023-03-01T18:28:44;6.30;99.90
18266;DHT22;9259;48.194;16.322;2023-03-01T18:31:17;6.20;99.90
18266;DHT22;9259;48.194;16.322;2023-03-01T18:33:52;6.40;99.90
18266;DHT22;9259;48.194;16.322;2023-03-01T18:36:23;6.10;99.90
18266;DHT22;9259;48.194;16.322;2023-03-01T18:38:54;6.10;99.90
18266;DHT22;9259;48.194;16.322;2023-03-01T18:41:25;6.10;99.90
18266;DHT22;9259;48.194;16.322;2023-03-01T18:43:57;6.00;99.90
18266;DHT22;9259;48.194;16.322;2023-03-01T18:46:28;6.10;99.90
18266;DHT22;9259;48.194;16.322;2023-03-01T18:48:58;6.00;99.90
18266;DHT22;9259;48.194;16.322;2023-03-01T18:51:28;6.00;99.90
18266;DHT22;9259;48.194;16.322;2023-03-01T18:53:58;6.30;99.90
18266;DHT22;9259;48.194;16.322;2023-03-01T18:56:29;6.00;99.90
18266;DHT22;9259;48.194;16.322;2023-03-01T18:59:00;6.00;99.90
18266;DHT22;9259;48.194;16.322;2023-03-01T19:01:31;5.90;99.90
18266;DHT22;9259;48.194;16.322;2023-03-01T19:04:02;5.90;99.90
18266;DHT22;9259;48.194;16.322;2023-03-01T19:06:33;5.90;99.90
18266;DHT22;9259;48.194;16.322;2023-03-01T19:09:02;5.90;99.90
18266;DHT22;9259;48.194;16.322;2023-03-01T19:11:31;5.80;99.90
18266;DHT22;9259;48.194;16.322;2023-03-01T19:14:05;5.80;99.90
18266;DHT22;9259;48.194;16.322;2023-03-01T19:16:35;5.70;99.90
18266;DHT22;9259;48.194;16.322;2023-03-01T19:19:07;5.70;99.90
18266;DHT22;9259;48.194;16.322;2023-03-01T19:21:36;5.60;99.90
18266;DHT22;9259;48.194;16.322;2023-03-01T19:24:06;5.60;99.90
18266;DHT22;9259;48.194;16.322;2023-03-01T19:26:36;5.60;99.90
18266;DHT22;9259;48.194;16.322;2023-03-01T19:29:07;6.10;99.90
18266;DHT22;9259;48.194;16.322;2023-03-01T19:31:38;6.00;99.90
18266;DHT22;9259;48.194;16.322;2023-03-01T19:34:09;5.80;99.90
18266;DHT22;9259;48.194;16.322;2023-03-01T19:36:40;5.70;99.90
18266;DHT22;9259;48.194;16.322;2023-03-01T19:39:12;5.50;99.90
18266;DHT22;9259;48.194;16.322;2023-03-01T19:41:42;5.50;99.90
18266;DHT22;9259;48.194;16.322;2023-03-01T19:44:12;5.50;99.90
18266;DHT22;9259;48.194;16.322;2023-03-01T19:46:52;5.40;99.90
18266;DHT22;9259;48.194;16.322;2023-03-01T19:49:25;5.40;99.90
18266;DHT22;9259;48.194;16.322;2023-03-01T19:51:55;5.30;99.90
18266;DHT22;9259;48.194;16.322;2023-03-01T19:54:25;5.10;99.90
18266;DHT22;9259;48.194;16.322;2023-03-01T19:56:54;5.20;99.90
18266;DHT22;9259;48.194;16.322;2023-03-01T19:59:24;5.20;99.90
18266;DHT22;9259;48.194;16.322;2023-03-01T20:01:54;5.00;99.90
18266;DHT22;9259;48.194;16.322;2023-03-01T20:04:24;5.00;99.90
18266;DHT22;9259;48.194;16.322;2023-03-01T20:06:54;5.00;99.90
18266;DHT22;9259;48.194;16.322;2023-03-01T20:09:23;5.00;99.90
18266;DHT22;9259;48.194;16.322;2023-03-01T20:11:54;4.80;99.90
18266;DHT22;9259;48.194;16.322;2023-03-01T20:14:25;4.80;99.90
18266;DHT22;9259;48.194;16.322;2023-03-01T20:16:54;4.80;99.90
18266;DHT22;9259;48.194;16.322;2023-03-01T20:19:26;4.70;99.90
18266;DHT22;9259;48.194;16.322;2023-03-01T20:21:55;4.70;99.90
18266;DHT22;9259;48.194;16.322;2023-03-01T20:24:24;4.70;99.90
18266;DHT22;9259;48.194;16.322;2023-03-01T20:26:53;4.70;99.90
18266;DHT22;9259;48.194;16.322;2023-03-01T20:29:22;4.70;99.90
18266;DHT22;9259;48.194;16.322;2023-03-01T20:31:55;4.60;99.90
18266;DHT22;9259;48.194;16.322;2023-03-01T20:34:26;4.50;99.90
18266;DHT22;9259;48.194;16.322;2023-03-01T20:36:55;4.50;99.90
18266;DHT22;9259;48.194;16.322;2023-03-01T20:39:24;4.50;99.90
18266;DHT22;9259;48.194;16.322;2023-03-01T20:41:54;4.50;99.90
18266;DHT22;9259;48.194;16.322;2023-03-01T20:44:23;4.50;99.90
18266;DHT22;9259;48.194;16.322;2023-03-01T20:46:52;4.40;99.90
18266;DHT22;9259;48.194;16.322;2023-03-01T20:49:21;4.40;99.90
18266;DHT22;9259;48.194;16.322;2023-03-01T20:51:51;4.40;99.90
18266;DHT22;9259;48.194;16.322;2023-03-01T20:54:21;4.50;99.90
18266;DHT22;9259;48.194;16.322;2023-03-01T20:56:49;4.50;99.90
18266;DHT22;9259;48.194;16.322;2023-03-01T20:59:20;4.70;99.90
18266;DHT22;9259;48.194;16.322;2023-03-01T21:01:49;4.60;99.90
18266;DHT22;9259;48.194;16.322;2023-03-01T21:04:18;4.60;99.90
18266;DHT22;9259;48.194;16.322;2023-03-01T21:06:47;4.70;99.90
18266;DHT22;9259;48.194;16.322;2023-03-01T21:09:17;4.70;99.90
18266;DHT22;9259;48.194;16.322;2023-03-01T21:11:48;4.70;99.90
18266;DHT22;9259;48.194;16.322;2023-03-01T21:14:19;4.70;99.90
18266;DHT22;9259;48.194;16.322;2023-03-01T21:16:49;5.00;99.90
18266;DHT22;9259;48.194;16.322;2023-03-01T21:19:17;4.80;99.90
18266;DHT22;9259;48.194;16.322;2023-03-01T21:21:47;4.80;99.90
18266;DHT22;9259;48.194;16.322;2023-03-01T21:24:16;4.90;99.90
18266;DHT22;9259;48.194;16.322;2023-03-01T21:26:53;4.80;99.90
18266;DHT22;9259;48.194;16.322;2023-03-01T21:29:22;4.90;99.90
18266;DHT22;9259;48.194;16.322;2023-03-01T21:31:50;5.00;99.90
18266;DHT22;9259;48.194;16.322;2023-03-01T21:34:18;5.00;99.90
18266;DHT22;9259;48.194;16.322;2023-03-01T21:36:46;5.00;99.90
18266;DHT22;9259;48.194;16.322;2023-03-01T21:39:14;5.10;99.90
18266;DHT22;9259;48.194;16.322;2023-03-01T21:41:44;5.00;99.90
18266;DHT22;9259;48.194;16.322;2023-03-01T21:44:12;5.10;99.90
18266;DHT22;9259;48.194;16.322;2023-03-01T21:46:41;5.10;99.90
18266;DHT22;9259;48.194;16.322;2023-03-01T21:49:09;5.20;99.90
18266;DHT22;9259;48.194;16.322;2023-03-01T21:51:37;5.20;99.90
18266;DHT22;9259;48.194;16.322;2023-03-01T21:54:06;5.10;99.90
18266;DHT22;9259;48.194;16.322;2023-03-01T21:56:35;5.10;99.90
18266;DHT22;9259;48.194;16.322;2023-03-01T21:59:06;5.10;99.90
18266;DHT22;9259;48.194;16.322;2023-03-01T22:01:35;5.20;99.90
18266;DHT22;9259;48.194;16.322;2023-03-01T22:04:03;5.50;99.90
18266;DHT22;9259;48.194;16.322;2023-03-01T22:06:33;5.20;99.90
18266;DHT22;9259;48.194;16.322;2023-03-01T22:09:07;5.20;99.90
18266;DHT22;9259;48.194;16.322;2023-03-01T22:11:39;5.20;99.90
18266;DHT22;9259;48.194;16.322;2023-03-01T22:14:08;5.20;99.90
18266;DHT22;9259;48.194;16.322;2023-03-01T22:16:38;5.40;99.90
18266;DHT22;9259;48.194;16.322;2023-03-01T22:19:08;5.20;99.90
18266;DHT22;9259;48.194;16.322;2023-03-01T22:21:38;5.40;99.90
18266;DHT22;9259;48.194;16.322;2023-03-01T22:24:08;5.30;99.90
18266;DHT22;9259;48.194;16.322;2023-03-01T22:26:39;5.30;99.90
18266;DHT22;9259;48.194;16.322;2023-03-01T22:29:11;5.30;99.90
18266;DHT22;9259;48.194;16.322;2023-03-01T22:31:41;5.30;99.90
18266;DHT22;9259;48.194;16.322;2023-03-01T22:34:10;5.30;99.90
18266;DHT22;9259;48.194;16.322;2023-03-01T22:36:38;5.30;99.90
18266;DHT22;9259;48.194;16.322;2023-03-01T22:39:06;5.30;99.90
18266;DHT22;9259;48.194;16.322;2023-03-01T22:41:37;5.30;99.90
18266;DHT22;9259;48.194;16.322;2023-03-01T22:44:09;5.30;99.90
18266;DHT22;9259;48.194;16.322;2023-03-01T22:46:37;5.30;99.90
18266;DHT22;9259;48.194;16.322;2023-03-01T22:49:06;5.30;99.90
18266;DHT22;9259;48.194;16.322;2023-03-01T22:51:37;5.20;99.90
18266;DHT22;9259;48.194;16.322;2023-03-01T22:54:08;5.20;99.90
18266;DHT22;9259;48.194;16.322;2023-03-01T22:56:37;5.20;99.90
18266;DHT22;9259;48.194;16.322;2023-03-01T22:59:10;5.10;99.90
18266;DHT22;9259;48.194;16.322;2023-03-01T23:01:41;5.10;99.90
18266;DHT22;9259;48.194;16.322;2023-03-01T23:04:10;5.00;99.90
18266;DHT22;9259;48.194;16.322;2023-03-01T23:06:38;4.90;99.90
18266;DHT22;9259;48.194;16.322;2023-03-01T23:09:16;4.90;99.90
18266;DHT22;9259;48.194;16.322;2023-03-01T23:11:47;4.80;99.90
18266;DHT22;9259;48.194;16.322;2023-03-01T23:14:16;4.90;99.90
18266;DHT22;9259;48.194;16.322;2023-03-01T23:16:44;4.90;99.90
18266;DHT22;9259;48.194;16.322;2023-03-01T23:19:12;4.90;99.90
18266;DHT22;9259;48.194;16.322;2023-03-01T23:21:41;4.90;99.90
18266;DHT22;9259;48.194;16.322;2023-03-01T23:24:14;5.00;99.90
18266;DHT22;9259;48.194;16.322;2023-03-01T23:26:43;5.00;99.90
18266;DHT22;9259;48.194;16.322;2023-03-01T23:29:12;5.00;99.90
18266;DHT22;9259;48.194;16.322;2023-03-01T23:31:42;5.00;99.90
18266;DHT22;9259;48.194;16.322;2023-03-01T23:34:22;5.20;99.90
18266;DHT22;9259;48.194;16.322;2023-03-01T23:37:03;4.90;99.90
18266;DHT22;9259;48.194;16.322;2023-03-01T23:39:45;4.90;99.90
18266;DHT22;9259;48.194;16.322;2023-03-01T23:42:49;4.90;99.90
18266;DHT22;9259;48.194;16.322;2023-03-01T23:45:27;5.00;99.90
18266;DHT22;9259;48.194;16.322;2023-03-01T23:48:07;5.20;99.90
18266;DHT22;9259;48.194;16.322;2023-03-01T23:50:41;4.90;99.90
18266;DHT22;9259;48.194;16.322;2023-03-01T23:53:28;4.90;99.90
18266;DHT22;9259;48.194;16.322;2023-03-01T23:56:03;4.80;99.90
18266;DHT22;9259;48.194;16.322;2023-03-01T23:58:51;4.80;99.90
